Flight Track Log - Related Links

Times and Time Zones

All times are in EST time to prevent confusion due to time zone crossing. See the PDT4207 flight status page for this flight to view local times or setup timezone preferences in your user account.

Time Position Orientation Groundspeed Altitude Reporting Facility
EST Latitude Longitude Course Direction KTS MPH feet Rate Location/Type
Tue 09:41:46 PM 39.8833 -75.2167 349° North 113 130 500  Level Philadelphia TRACON
Tue 09:42:58 PM 39.9167 -75.1667 49° Northeast 157 181 2,100 1,323 Climbing Philadelphia TRACON
Tue 09:43:53 PM 39.9500 -75.1333 37° Northeast 151 174 3,300 991 Climbing Philadelphia TRACON
Tue 09:44:00 PM 40.1098 -75.3136 348° North  Level Estimated
Tue 09:44:53 PM 39.9833 -75.1500 339° North 173 199 4,000  Level Philadelphia TRACON
Tue 09:45:00 PM 40.1901 -75.3300 351° North  Level FlightAware Approximate
Tue 09:45:47 PM 40.0333 -75.1667 346° North 211 243 4,000  Level Philadelphia TRACON
Tue 09:46:00 PM 40.2705 -75.3464 351° North  Level FlightAware Approximate
Tue 09:46:47 PM 40.1000 -75.2000 339° North 222 255 4,000  Level Philadelphia TRACON
Tue 09:47:00 PM 40.3495 -75.3715 349° North  Level Estimated
Tue 09:47:47 PM 40.1500 -75.2333 333° Northwest 227 261 4,000  Level Philadelphia TRACON
Tue 09:49:00 PM 40.2425 -75.2794 339° North  Level FlightAware Approximate
Tue 09:56:00 PM 40.7965 -75.4500 North  Level FlightAware Approximate
Tue 09:57:00 PM 40.8778 -75.4500 North  Level FlightAware Approximate
Tue 09:58:00 PM 40.9592 -75.4500 North  Level FlightAware Approximate
Tue 09:59:00 PM 41.0405 -75.4505 357° North  Level FlightAware Approximate
Tue 10:00:00 PM 41.1217 -75.4568 357° North  Level FlightAware Approximate
Tue 10:01:00 PM 41.2029 -75.4630 357° North  Level FlightAware Approximate
Tue 10:02:00 PM 41.2841 -75.4667 North  Level FlightAware Approximate
Tue 10:03:00 PM 41.3654 -75.4667 North  Level FlightAware Approximate
Tue 10:04:00 PM 41.4468 -75.4667 North  Level FlightAware Approximate
Tue 10:05:00 PM 41.5159 -75.5157 323° Northwest  Level FlightAware Approximate
Tue 10:06:00 PM 41.5810 -75.5808 323° Northwest  Level FlightAware Approximate
Tue 10:07:00 PM 41.6461 -75.6459 323° Northwest  Level FlightAware Approximate
Tue 10:08:00 PM 41.7112 -75.7112 323° Northwest  Level FlightAware Approximate
Tue 10:09:00 PM 41.7777 -75.7739 325° Northwest  Level FlightAware Approximate
Tue 10:10:00 PM 41.8444 -75.8365 325° Northwest  Level FlightAware Approximate
Tue 10:11:00 PM 41.9109 -75.8992 325° Northwest  Level FlightAware Approximate
Tue 10:12:00 PM 41.9775 -75.9621 325° Northwest  Level FlightAware Approximate
Tue 10:13:00 PM 42.0432 -76.0265 323° Northwest  Level FlightAware Approximate
Tue 10:14:00 PM 42.1085 -76.0918 323° Northwest  Level FlightAware Approximate
Tue 10:15:00 PM 42.1540 -76.0960 37° Northeast  Level FlightAware Approximate
Tue 10:16:00 PM 42.1978 -76.0055 62° Northeast  Level FlightAware Approximate
Tue 10:17:00 PM 42.2000 -75.9667 90° East  Level FlightAware Approximate
Tue 10:18:00 PM 42.2084 -75.9796 90° East  Level Estimated
Tue 10:19:00 PM 42.2084 -75.9796 90° East  Level Estimated
Tue 10:20:00 PM 42.2084 -75.9796 90° East  Level Estimated
Tue 10:21:00 PM 42.2084 -75.9796 90° East  Level Estimated
Tue 10:22:00 PM 42.2084 -75.9796 90° East  Level Estimated
Tue 10:23:00 PM 42.2084 -75.9796 90° East  Level Estimated
Tue 10:24:00 PM 42.2084 -75.9796 90° East  Level Estimated
Tue 10:25:00 PM 42.2084 -75.9796 90° East  Level Estimated

Login

Don't have an account? Register now (free) for customized features, flight alerts, and more!